Time;durP1;ratioP1;P1;durP2;ratioP2;P2;SDS_P1;SDS_P2;PMS_P1;PMS_P2;Temp;Humidity;BMP_temperature;BMP_pressure;BME280_temperature;BME280_humidity;BME280_pressure;Samples;Min_cycle;Max_cycle;Signal;HPM_P1;HPM_P2
2022/03/10 00:02:47;;;;;;;34.13;17.27;;;12.00;61.80;;;;;;4963347;28;20202;-95
2022/03/10 00:49:08;;;;;;;32.00;17.33;;;11.20;64.90;;;;;;4981972;28;20240;-84
2022/03/10 00:51:33;;;;;;;36.40;17.90;;;11.20;65.20;;;;;;4981289;28;20643;-84
2022/03/10 00:53:59;;;;;;;36.93;18.77;;;11.50;64.60;;;;;;4986832;28;20346;-84
2022/03/10 00:56:24;;;;;;;30.70;17.47;;;11.40;65.00;;;;;;4963534;28;20224;-84
2022/03/10 00:58:50;;;;;;;28.83;17.37;;;11.40;65.00;;;;;;4979971;28;20617;-83
2022/03/10 01:01:15;;;;;;;30.03;16.97;;;11.40;64.80;;;;;;4962394;28;20182;-82
2022/03/10 01:03:42;;;;;;;33.20;18.30;;;11.40;65.20;;;;;;4968043;28;20240;-85
2022/03/10 01:06:08;;;;;;;34.30;16.90;;;11.30;65.50;;;;;;4956113;28;20195;-85
2022/03/10 01:08:33;;;;;;;28.80;16.50;;;11.30;65.60;;;;;;4956856;28;20185;-86
2022/03/10 01:10:59;;;;;;;29.60;17.10;;;11.30;65.60;;;;;;4956957;28;20212;-84
2022/03/10 01:13:24;;;;;;;32.10;16.97;;;11.30;65.90;;;;;;4973858;28;20639;-85
2022/03/10 01:15:50;;;;;;;32.97;17.50;;;11.30;65.90;;;;;;4973178;28;20686;-85
2022/03/10 01:18:16;;;;;;;29.73;16.83;;;11.20;66.40;;;;;;4956668;28;20664;-84
2022/03/10 01:20:41;;;;;;;33.17;17.40;;;11.20;66.50;;;;;;4963729;28;20227;-83
2022/03/10 01:23:09;;;;;;;28.70;16.50;;;11.20;66.40;;;;;;4962281;28;20281;-83
2022/03/10 01:25:34;;;;;;;32.90;17.00;;;11.10;66.90;;;;;;4956755;28;20250;-84
2022/03/10 01:28:00;;;;;;;35.97;18.77;;;11.20;66.50;;;;;;4973958;28;20674;-84
2022/03/10 01:30:26;;;;;;;32.47;16.90;;;11.10;66.60;;;;;;4956539;28;20525;-84
2022/03/10 01:32:51;;;;;;;31.87;16.53;;;11.20;66.90;;;;;;4973418;28;20171;-85
2022/03/10 01:35:17;;;;;;;32.57;17.27;;;11.00;67.20;;;;;;4973918;28;20181;-85
2022/03/10 01:37:44;;;;;;;31.13;16.93;;;11.00;67.20;;;;;;4957150;28;20181;-86
2022/03/10 01:40:12;;;;;;;30.17;16.73;;;11.00;67.60;;;;;;4977497;28;20184;-84
2022/03/10 01:42:38;;;;;;;29.80;16.33;;;10.80;67.70;;;;;;4960032;28;20190;-84
2022/03/10 01:45:05;;;;;;;28.73;16.30;;;10.80;68.30;;;;;;4959854;28;20214;-85
2022/03/10 01:47:31;;;;;;;28.20;17.33;;;11.00;67.90;;;;;;4959343;28;20202;-84
2022/03/10 01:49:57;;;;;;;31.53;16.40;;;11.00;67.70;;;;;;4959927;28;20241;-84
2022/03/10 01:52:23;;;;;;;31.30;16.17;;;11.00;67.90;;;;;;4959784;28;20639;-83
2022/03/10 01:54:49;;;;;;;28.93;16.70;;;11.10;67.50;;;;;;4977521;28;20178;-85
2022/03/10 01:57:15;;;;;;;34.97;17.37;;;11.10;67.50;;;;;;4959822;28;20620;-85
2022/03/10 01:59:41;;;;;;;32.17;17.50;;;11.10;67.70;;;;;;4959811;28;20229;-83
2022/03/10 02:02:08;;;;;;;31.00;16.13;;;11.20;67.20;;;;;;4959533;28;20179;-87
2022/03/10 02:04:34;;;;;;;30.90;16.07;;;11.00;67.60;;;;;;4976907;28;20208;-85
2022/03/10 02:07:05;;;;;;;31.27;16.43;;;11.10;67.80;;;;;;4959916;28;20189;-84
2022/03/10 02:12:17;;;;;;;30.87;17.17;;;11.10;67.60;;;;;;4977215;28;20255;-84
2022/03/10 02:17:27;;;;;;;33.27;16.20;;;10.90;68.30;;;;;;4976854;28;20241;-87
2022/03/10 02:19:58;;;;;;;35.83;17.43;;;10.70;68.70;;;;;;4959292;28;20879;-84
2022/03/10 02:22:26;;;;;;;29.27;15.83;;;10.60;69.10;;;;;;4959374;28;20686;-84
2022/03/10 02:24:53;;;;;;;33.93;16.77;;;10.60;68.90;;;;;;4959122;28;20691;-84
2022/03/10 02:27:26;;;;;;;33.30;17.40;;;10.60;69.40;;;;;;4959496;28;20208;-84
2022/03/10 02:29:53;;;;;;;32.93;17.40;;;10.60;69.20;;;;;;4959045;28;20187;-84
2022/03/10 02:32:20;;;;;;;31.40;16.87;;;10.70;69.00;;;;;;4959097;28;20565;-84
2022/03/10 02:34:47;;;;;;;28.10;16.30;;;10.60;69.30;;;;;;4959291;28;20262;-84
2022/03/10 02:37:13;;;;;;;34.20;17.43;;;10.30;70.00;;;;;;4959042;28;20673;-84
2022/03/10 02:39:39;;;;;;;33.63;17.43;;;10.40;70.10;;;;;;4959135;28;20274;-84
2022/03/10 02:42:06;;;;;;;32.53;18.07;;;10.20;70.80;;;;;;4959383;28;20637;-84
2022/03/10 02:44:32;;;;;;;31.80;17.07;;;10.10;71.20;;;;;;4958904;28;20229;-84
2022/03/10 02:46:57;;;;;;;32.30;17.83;;;10.10;70.90;;;;;;4958864;28;20536;-84
2022/03/10 02:49:23;;;;;;;31.47;17.00;;;10.10;71.20;;;;;;4975128;28;20198;-84
2022/03/10 02:51:50;;;;;;;31.80;16.97;;;10.30;70.70;;;;;;4976223;28;20217;-83
2022/03/10 02:54:15;;;;;;;29.87;16.37;;;10.30;70.50;;;;;;4958467;28;20603;-84
2022/03/10 02:56:42;;;;;;;29.07;16.20;;;10.30;70.60;;;;;;4958644;28;20215;-84
2022/03/10 02:59:09;;;;;;;31.33;16.43;;;10.20;70.60;;;;;;4958517;28;20185;-84
2022/03/10 03:01:34;;;;;;;28.27;16.03;;;10.30;70.70;;;;;;4958768;28;20178;-84
2022/03/10 03:04:00;;;;;;;33.93;16.53;;;10.20;70.90;;;;;;4958543;28;20193;-84
2022/03/10 03:06:25;;;;;;;30.53;17.63;;;10.00;71.70;;;;;;4958578;28;20639;-84
2022/03/10 03:08:51;;;;;;;30.10;16.83;;;9.90;72.10;;;;;;4958635;28;20182;-84
2022/03/10 03:11:16;;;;;;;30.33;16.93;;;9.70;72.80;;;;;;4958288;28;20187;-84
2022/03/10 03:13:42;;;;;;;32.73;16.00;;;9.70;72.70;;;;;;4958387;28;20178;-84
2022/03/10 03:16:08;;;;;;;32.60;16.70;;;9.80;72.60;;;;;;4957961;28;20710;-84
2022/03/10 03:18:33;;;;;;;31.37;16.67;;;9.80;72.20;;;;;;4958189;28;20199;-83
2022/03/10 03:21:00;;;;;;;32.20;16.43;;;9.80;72.40;;;;;;4958225;28;20198;-84
2022/03/10 03:23:26;;;;;;;29.37;15.70;;;9.80;72.60;;;;;;4958271;28;20178;-84
2022/03/10 03:25:52;;;;;;;31.03;17.33;;;9.70;72.90;;;;;;4958166;28;20269;-84
2022/03/10 03:28:21;;;;;;;28.47;16.33;;;9.90;72.40;;;;;;4958284;28;20187;-84
2022/03/10 03:30:47;;;;;;;30.30;16.47;;;9.90;72.10;;;;;;4957917;28;20182;-84
2022/03/10 03:33:13;;;;;;;34.13;17.33;;;9.60;73.20;;;;;;4958157;28;20193;-84
2022/03/10 03:35:38;;;;;;;30.87;16.23;;;9.70;73.00;;;;;;4957914;28;20213;-84
2022/03/10 03:38:04;;;;;;;31.03;16.30;;;9.70;73.00;;;;;;4958152;28;20638;-85
2022/03/10 03:40:29;;;;;;;29.87;17.03;;;9.40;73.80;;;;;;4957829;28;20187;-84
2022/03/10 03:42:55;;;;;;;31.43;17.73;;;9.30;74.60;;;;;;4958275;28;20187;-84
2022/03/10 03:45:22;;;;;;;31.40;17.57;;;9.30;74.70;;;;;;4957508;28;20597;-84
2022/03/10 03:47:48;;;;;;;31.70;16.73;;;9.40;74.60;;;;;;4957788;28;20669;-84
2022/03/10 03:50:14;;;;;;;31.60;17.63;;;9.40;74.50;;;;;;4957631;28;20189;-84
2022/03/10 03:52:39;;;;;;;30.83;16.83;;;9.40;74.50;;;;;;4957638;28;20186;-84
2022/03/10 03:55:06;;;;;;;30.57;17.43;;;9.10;75.40;;;;;;4974836;28;20186;-85
2022/03/10 03:57:31;;;;;;;33.00;17.03;;;9.10;76.00;;;;;;4957780;28;20189;-85
2022/03/10 03:59:57;;;;;;;32.40;17.53;;;9.10;75.80;;;;;;4957458;28;20190;-85
2022/03/10 04:02:22;;;;;;;30.40;17.17;;;9.20;75.60;;;;;;4957009;28;20178;-85
2022/03/10 04:04:48;;;;;;;30.73;16.07;;;9.30;75.50;;;;;;4957580;28;20248;-84
2022/03/10 04:07:14;;;;;;;34.80;18.23;;;9.50;74.20;;;;;;4957563;28;20187;-84
2022/03/10 04:09:40;;;;;;;31.40;17.47;;;9.70;73.80;;;;;;4957482;28;20549;-84
2022/03/10 04:12:06;;;;;;;30.83;16.73;;;9.80;74.00;;;;;;4957350;28;20273;-85
2022/03/10 04:14:31;;;;;;;33.87;17.30;;;9.80;73.60;;;;;;4957250;28;20186;-85
2022/03/10 04:16:57;;;;;;;31.30;17.40;;;9.60;74.30;;;;;;4957424;28;20251;-84
2022/03/10 04:19:23;;;;;;;34.50;15.97;;;9.40;74.50;;;;;;4957391;28;20181;-85
2022/03/10 04:21:49;;;;;;;30.07;16.00;;;9.50;75.20;;;;;;4957125;28;20602;-83
2022/03/10 04:24:15;;;;;;;29.57;16.30;;;9.40;74.90;;;;;;4958548;28;20290;-91
2022/03/10 04:26:42;;;;;;;32.77;16.30;;;9.40;75.40;;;;;;4957608;28;20224;-91
2022/03/10 04:29:08;;;;;;;30.50;16.43;;;9.50;75.00;;;;;;4957449;28;20623;-91
2022/03/10 04:38:13;;;;;;;;;;;;;;;;;;;;;
2022/03/10 04:44:14;;;;;;;28.40;15.70;;;9.60;74.70;;;;;;4964372;28;20578;-93
2022/03/10 04:46:40;;;;;;;30.53;16.13;;;9.60;75.10;;;;;;4958252;28;20194;-92
2022/03/10 04:49:06;;;;;;;29.87;16.47;;;9.60;75.50;;;;;;4957533;28;20194;-91
2022/03/10 04:51:32;;;;;;;28.10;15.47;;;9.40;75.90;;;;;;4957381;28;20188;-90
2022/03/10 04:53:57;;;;;;;28.57;15.57;;;9.50;75.70;;;;;;4957738;28;20178;-90
2022/03/10 04:56:23;;;;;;;34.37;15.80;;;9.60;75.50;;;;;;4956927;28;20189;-90
2022/03/10 04:58:49;;;;;;;29.47;15.63;;;9.40;76.20;;;;;;4957581;28;20730;-90
2022/03/10 05:01:14;;;;;;;28.77;16.07;;;9.40;76.20;;;;;;4957288;28;20681;-90
2022/03/10 05:03:40;;;;;;;28.37;15.70;;;9.60;75.90;;;;;;4957421;28;20680;-90
2022/03/10 05:06:06;;;;;;;30.93;16.50;;;9.60;75.50;;;;;;4957127;28;20574;-91
2022/03/10 05:08:31;;;;;;;29.33;15.87;;;9.60;75.40;;;;;;4957745;28;20643;-90
2022/03/10 05:10:58;;;;;;;31.20;16.07;;;9.30;76.40;;;;;;4957557;28;20178;-90
2022/03/10 05:13:24;;;;;;;29.30;14.87;;;9.40;76.30;;;;;;4958579;28;20190;-91
2022/03/10 05:15:50;;;;;;;24.77;15.10;;;9.40;76.60;;;;;;4961249;28;20201;-91
2022/03/10 05:18:27;;;;;;;32.10;17.53;;;9.40;76.80;;;;;;4961412;28;20704;-91
2022/03/10 05:20:56;;;;;;;30.93;16.57;;;9.30;77.20;;;;;;4960946;28;20186;-91
2022/03/10 05:23:27;;;;;;;28.63;16.57;;;9.40;76.80;;;;;;4961061;28;20209;-92
2022/03/10 05:25:53;;;;;;;29.40;16.43;;;9.50;76.70;;;;;;4960650;28;20581;-91
2022/03/10 05:28:19;;;;;;;29.77;15.90;;;9.40;76.90;;;;;;4961089;28;20176;-92
2022/03/10 05:30:48;;;;;;;29.10;16.03;;;9.30;77.30;;;;;;4960556;28;20593;-92
2022/03/10 05:33:16;;;;;;;27.93;16.03;;;9.20;77.80;;;;;;4960594;28;20178;-92
2022/03/10 05:35:42;;;;;;;29.07;15.60;;;9.20;78.00;;;;;;4960836;28;20195;-91
2022/03/10 05:38:08;;;;;;;31.07;16.63;;;9.20;78.00;;;;;;4960886;28;20220;-91
2022/03/10 05:40:34;;;;;;;28.97;16.83;;;9.30;77.20;;;;;;4963667;28;20686;-92
2022/03/10 05:42:59;;;;;;;30.73;16.23;;;9.40;77.00;;;;;;4974182;28;20177;-90
2022/03/10 05:45:26;;;;;;;33.80;17.10;;;9.40;76.80;;;;;;4986588;28;20299;-91
2022/03/10 05:47:53;;;;;;;32.43;16.70;;;9.40;76.90;;;;;;4971820;28;20198;-91
2022/03/10 05:50:20;;;;;;;31.80;17.47;;;9.30;77.50;;;;;;4979618;28;20236;-91
2022/03/10 05:52:46;;;;;;;35.67;17.23;;;9.10;78.00;;;;;;4970240;28;20189;-90
2022/03/10 05:55:13;;;;;;;31.73;16.53;;;9.10;78.40;;;;;;4965803;28;20194;-91
2022/03/10 05:57:39;;;;;;;27.63;15.77;;;9.10;78.50;;;;;;4965379;28;20185;-90
2022/03/10 06:00:06;;;;;;;31.53;16.53;;;9.30;77.60;;;;;;4960429;28;20194;-90
2022/03/10 06:02:32;;;;;;;32.40;16.23;;;9.00;78.60;;;;;;4964195;28;20192;-92
2022/03/10 06:05:01;;;;;;;29.63;16.07;;;9.10;78.70;;;;;;4965605;28;20614;-91
2022/03/10 06:07:27;;;;;;;29.17;16.60;;;9.10;78.40;;;;;;4962786;28;20657;-91
2022/03/10 06:09:55;;;;;;;31.70;16.20;;;9.30;77.80;;;;;;4968030;28;20187;-91
2022/03/10 06:12:25;;;;;;;32.40;17.07;;;9.20;78.10;;;;;;4963319;28;20631;-90
2022/03/10 06:14:55;;;;;;;32.67;17.17;;;9.10;78.30;;;;;;4959614;28;20538;-90
2022/03/10 06:17:21;;;;;;;32.73;17.07;;;9.10;78.40;;;;;;4960061;28;20191;-90
2022/03/10 06:19:48;;;;;;;34.40;17.47;;;9.20;78.20;;;;;;4960025;28;20228;-90
2022/03/10 06:22:21;;;;;;;30.67;16.50;;;9.30;78.10;;;;;;4964879;28;20560;-92
2022/03/10 06:24:48;;;;;;;29.73;16.87;;;9.10;78.70;;;;;;4963316;28;20741;-90
2022/03/10 06:27:16;;;;;;;27.87;16.03;;;9.00;79.20;;;;;;4964981;28;20181;-90
2022/03/10 06:29:44;;;;;;;30.53;17.70;;;9.10;79.10;;;;;;4978236;28;20186;-90
2022/03/10 06:32:15;;;;;;;30.53;17.57;;;9.10;79.50;;;;;;4970659;28;20187;-92
2022/03/10 06:34:41;;;;;;;30.43;16.30;;;8.90;79.90;;;;;;4959382;28;20183;-91
2022/03/10 06:37:07;;;;;;;32.90;16.83;;;9.00;79.70;;;;;;4958542;28;20588;-91
2022/03/10 06:39:33;;;;;;;32.33;17.97;;;9.10;80.00;;;;;;4959312;28;20212;-90
2022/03/10 06:41:59;;;;;;;31.23;17.73;;;9.10;79.70;;;;;;4960454;28;20519;-92
2022/03/10 06:44:25;;;;;;;33.50;17.10;;;9.20;79.70;;;;;;4959791;28;20272;-92
2022/03/10 06:46:52;;;;;;;34.80;17.33;;;9.10;80.10;;;;;;4958705;28;20580;-92
2022/03/10 06:49:54;;;;;;;33.97;17.77;;;9.20;79.70;;;;;;4958810;28;20181;-92
2022/03/10 06:55:29;;;;;;;35.67;18.33;;;9.30;79.20;;;;;;4976256;28;20189;-92
2022/03/10 06:58:16;;;;;;;;;;;;;;;;;;;;;
2022/03/10 07:01:02;;;;;;;;;;;;;;;;;;;;;
2022/03/10 07:04:02;;;;;;;;;;;;;;;;;;;;;
2022/03/10 07:06:28;;;;;;;34.07;18.03;;;9.40;79.00;;;;;;4980395;28;20212;-92
2022/03/10 07:14:46;;;;;;;36.43;16.63;;;9.00;80.60;;;;;;5413041;23;20240;-91
2022/03/10 07:17:12;;;;;;;33.17;18.30;;;9.20;79.50;;;;;;4997515;28;20179;-91
2022/03/10 07:19:37;;;;;;;36.17;17.50;;;9.30;79.60;;;;;;5009705;28;20230;-91
2022/03/10 07:22:03;;;;;;;36.30;18.57;;;9.20;79.20;;;;;;5016671;28;20186;-90
2022/03/10 07:24:30;;;;;;;31.07;17.87;;;9.30;79.20;;;;;;5004943;28;20247;-90
2022/03/10 07:26:56;;;;;;;35.97;19.63;;;9.30;79.00;;;;;;4997608;28;20656;-91
2022/03/10 07:29:27;;;;;;;36.87;17.87;;;9.50;78.80;;;;;;4997737;28;20180;-92
2022/03/10 07:31:52;;;;;;;37.80;18.90;;;9.40;79.30;;;;;;4997280;28;20178;-91
2022/03/10 07:34:18;;;;;;;37.07;17.80;;;9.40;79.10;;;;;;4997234;28;20173;-91
2022/03/10 07:36:43;;;;;;;32.47;17.03;;;9.50;78.50;;;;;;4997380;28;20180;-91
2022/03/10 07:39:09;;;;;;;36.53;17.63;;;9.70;78.00;;;;;;4997208;28;20173;-91
2022/03/10 07:41:35;;;;;;;33.30;17.93;;;9.60;78.40;;;;;;4997360;28;20181;-92
2022/03/10 07:44:00;;;;;;;36.70;19.00;;;9.80;78.00;;;;;;4997491;28;20196;-91
2022/03/10 07:46:26;;;;;;;32.53;18.60;;;9.70;77.90;;;;;;4997392;28;20193;-91
2022/03/10 07:48:52;;;;;;;34.20;17.90;;;9.80;77.60;;;;;;4997330;28;20177;-91
2022/03/10 07:51:19;;;;;;;36.30;17.97;;;9.90;77.10;;;;;;4996656;28;20244;-91
2022/03/10 07:53:53;;;;;;;33.43;18.17;;;10.00;77.30;;;;;;4997283;28;20191;-92
2022/03/10 07:56:21;;;;;;;33.83;18.00;;;10.10;77.20;;;;;;4997419;28;20690;-92
2022/03/10 07:58:50;;;;;;;34.00;18.67;;;10.10;77.50;;;;;;4997504;28;20181;-92
2022/03/10 08:01:16;;;;;;;30.07;17.97;;;10.10;77.30;;;;;;4997200;28;20194;-92
2022/03/10 08:03:42;;;;;;;31.93;17.17;;;10.20;77.00;;;;;;4997125;28;20178;-92
2022/03/10 08:06:08;;;;;;;30.27;17.63;;;10.20;77.30;;;;;;4996705;28;20316;-92
2022/03/10 08:08:37;;;;;;;36.70;18.37;;;10.40;76.30;;;;;;4997024;28;20166;-93
2022/03/10 08:11:06;;;;;;;34.83;17.33;;;10.50;76.00;;;;;;4975245;28;20190;-92
2022/03/10 13:16:46;;;;;;;15.10;11.63;;;32.10;43.10;;;;;;5525785;23;20225;-90
2022/03/10 13:19:38;;;;;;;16.88;11.63;;;32.20;42.60;;;;;;4996005;28;20586;-91
2022/03/10 13:22:05;;;;;;;14.65;10.02;;;32.00;42.80;;;;;;4978864;28;20197;-91
2022/03/10 13:24:41;;;;;;;17.23;11.10;;;31.90;42.80;;;;;;4976652;28;20296;-91
2022/03/10 13:27:18;;;;;;;15.27;11.00;;;32.20;42.80;;;;;;4976401;28;20190;-91
2022/03/10 13:29:48;;;;;;;15.57;11.18;;;32.60;42.70;;;;;;4976415;28;20272;-91
2022/03/10 13:32:25;;;;;;;17.65;12.43;;;33.10;42.60;;;;;;4992436;28;20185;-91
2022/03/10 13:34:55;;;;;;;18.05;11.45;;;33.10;42.00;;;;;;4978544;28;20177;-91
2022/03/10 13:37:22;;;;;;;14.75;11.27;;;33.30;42.30;;;;;;4980013;28;20213;-91
2022/03/10 13:39:49;;;;;;;14.55;10.73;;;33.50;42.10;;;;;;4979962;28;20190;-90
2022/03/10 13:42:30;;;;;;;14.00;10.95;;;33.90;41.60;;;;;;4979883;28;20181;-91
2022/03/10 13:45:07;;;;;;;16.42;11.95;;;34.10;41.30;;;;;;4979906;28;20292;-91
2022/03/10 13:47:52;;;;;;;15.98;10.73;;;34.10;41.10;;;;;;4980038;28;20349;-91
2022/03/10 13:50:26;;;;;;;12.18;9.20;;;33.80;41.20;;;;;;4996065;28;20201;-90
2022/03/10 13:52:57;;;;;;;14.68;8.70;;;33.20;41.20;;;;;;4979828;28;20272;-91
2022/03/10 13:55:50;;;;;;;12.48;8.75;;;32.50;41.30;;;;;;4979721;28;20645;-91
2022/03/10 13:58:17;;;;;;;10.95;8.02;;;32.90;41.40;;;;;;4964095;28;20201;-91
2022/03/10 14:00:45;;;;;;;10.98;7.70;;;32.70;41.10;;;;;;4979620;28;20190;-90
2022/03/10 14:03:12;;;;;;;10.88;7.82;;;32.70;41.00;;;;;;4979734;28;20178;-91
2022/03/10 14:05:52;;;;;;;11.23;7.10;;;32.40;41.20;;;;;;4996138;28;20218;-91
2022/03/10 14:08:20;;;;;;;9.68;7.38;;;31.40;41.30;;;;;;4979837;28;20182;-89
2022/03/10 14:11:04;;;;;;;13.10;8.25;;;30.90;41.60;;;;;;4995812;28;20181;-89
2022/03/10 14:13:33;;;;;;;11.07;7.68;;;30.60;41.70;;;;;;4979569;28;20177;-90
2022/03/10 14:16:04;;;;;;;10.93;7.70;;;30.90;41.70;;;;;;4979064;28;20211;-92
2022/03/10 14:18:31;;;;;;;9.55;7.30;;;30.50;41.40;;;;;;4979654;28;20208;-89
2022/03/10 14:21:09;;;;;;;8.82;6.70;;;30.20;41.80;;;;;;4979246;28;20658;-89
2022/03/10 14:23:36;;;;;;;16.73;8.20;;;29.70;41.80;;;;;;4978942;28;20185;-90
2022/03/10 14:26:16;;;;;;;13.23;8.55;;;30.00;41.80;;;;;;4979195;28;20726;-90
2022/03/10 14:28:47;;;;;;;13.50;8.15;;;30.80;41.20;;;;;;4978987;28;20344;-90
2022/03/10 14:31:14;;;;;;;11.82;8.45;;;31.50;40.80;;;;;;4979182;28;20177;-90
2022/03/10 14:33:41;;;;;;;12.65;9.25;;;31.90;41.00;;;;;;4979132;28;20178;-90
2022/03/10 14:36:09;;;;;;;12.23;9.15;;;32.40;40.10;;;;;;4978878;28;20174;-90
2022/03/10 14:38:35;;;;;;;12.90;9.05;;;32.80;39.80;;;;;;4978853;28;20582;-90
2022/03/10 14:41:02;;;;;;;11.15;8.48;;;33.00;39.80;;;;;;4978892;28;20205;-90
2022/03/10 14:43:27;;;;;;;10.18;7.90;;;33.20;39.80;;;;;;4978719;28;20236;-90
2022/03/10 14:45:53;;;;;;;9.57;8.02;;;33.30;39.20;;;;;;4977989;28;20229;-90
2022/03/10 14:48:20;;;;;;;10.85;8.30;;;33.10;39.60;;;;;;4978784;28;20178;-92
2022/03/10 14:50:45;;;;;;;12.15;8.52;;;33.20;39.50;;;;;;4978353;28;20668;-90
2022/03/10 14:53:12;;;;;;;12.23;8.85;;;33.40;39.50;;;;;;4978585;28;20257;-90
2022/03/10 14:55:38;;;;;;;11.85;9.40;;;33.60;39.10;;;;;;4978647;28;20196;-92
2022/03/10 14:58:05;;;;;;;12.82;9.07;;;33.40;38.90;;;;;;4978871;28;20234;-89
2022/03/10 15:00:31;;;;;;;14.75;9.18;;;33.00;39.60;;;;;;4978645;28;20213;-92
2022/03/10 15:02:58;;;;;;;12.40;8.80;;;32.80;39.70;;;;;;4978866;28;20261;-90
2022/03/10 15:05:24;;;;;;;11.70;9.00;;;33.00;39.60;;;;;;4978031;28;20205;-90
2022/03/10 15:07:50;;;;;;;13.13;9.95;;;33.30;39.60;;;;;;4978688;28;20193;-90
2022/03/10 15:10:18;;;;;;;11.38;9.13;;;33.30;39.20;;;;;;4978358;28;20178;-90
2022/03/10 15:12:45;;;;;;;14.05;10.18;;;33.10;39.50;;;;;;4978382;28;20188;-90
2022/03/10 15:15:12;;;;;;;13.85;9.80;;;33.10;39.00;;;;;;4978408;28;20182;-90
2022/03/10 15:17:38;;;;;;;14.73;11.95;;;33.10;39.10;;;;;;4978247;28;20395;-90
2022/03/10 15:20:07;;;;;;;13.40;10.05;;;32.70;39.40;;;;;;4978055;28;20190;-90
2022/03/10 15:22:33;;;;;;;13.35;9.70;;;32.60;39.20;;;;;;4978108;28;20662;-90
2022/03/10 15:24:59;;;;;;;16.23;9.75;;;32.50;39.20;;;;;;4978464;28;20333;-90
2022/03/10 15:27:25;;;;;;;13.02;10.10;;;32.40;39.00;;;;;;4978281;28;20224;-90
2022/03/10 15:29:51;;;;;;;14.05;9.32;;;32.50;38.90;;;;;;4978224;28;20173;-90
2022/03/10 15:32:17;;;;;;;16.05;9.82;;;32.50;38.70;;;;;;4978192;28;20197;-90
2022/03/10 15:34:42;;;;;;;14.63;9.75;;;32.40;38.80;;;;;;4977888;28;20189;-90
2022/03/10 15:37:08;;;;;;;13.48;9.85;;;32.40;38.70;;;;;;4978158;28;20198;-90
2022/03/10 15:39:35;;;;;;;14.18;10.50;;;32.60;38.80;;;;;;4978190;28;20178;-91
2022/03/10 15:42:04;;;;;;;15.93;10.52;;;32.70;38.70;;;;;;4977775;28;20550;-89
2022/03/10 15:44:30;;;;;;;16.10;11.32;;;32.80;38.30;;;;;;4977600;28;20530;-90
2022/03/10 15:46:56;;;;;;;16.80;10.27;;;32.70;38.30;;;;;;4977593;28;20182;-90
2022/03/10 15:49:22;;;;;;;13.85;9.73;;;32.40;38.10;;;;;;4977617;28;20232;-90
2022/03/10 15:51:50;;;;;;;19.02;10.43;;;32.00;38.30;;;;;;4977409;28;20405;-90
2022/03/10 15:54:15;;;;;;;17.33;11.50;;;31.60;38.80;;;;;;4977604;28;20241;-90
2022/03/10 15:56:43;;;;;;;14.73;10.68;;;31.50;38.50;;;;;;4977862;28;20174;-90
2022/03/10 15:59:09;;;;;;;15.02;10.23;;;31.50;38.30;;;;;;4977523;28;20247;-92
2022/03/10 16:01:37;;;;;;;12.73;9.60;;;31.40;37.80;;;;;;4977435;28;20269;-89
2022/03/10 16:04:04;;;;;;;14.63;9.93;;;31.30;37.80;;;;;;4977830;28;20757;-88
2022/03/10 16:06:34;;;;;;;16.17;9.43;;;31.20;37.60;;;;;;4977090;28;20669;-92
2022/03/10 16:09:01;;;;;;;18.63;11.05;;;31.10;38.00;;;;;;4977478;28;20224;-90
2022/03/10 16:11:27;;;;;;;15.18;11.23;;;31.00;37.90;;;;;;4977299;28;20264;-90
2022/03/10 16:13:54;;;;;;;16.35;11.93;;;30.40;38.10;;;;;;4977359;28;20309;-89
2022/03/10 16:16:20;;;;;;;17.63;11.17;;;30.10;38.10;;;;;;4977105;28;20663;-90
2022/03/10 16:18:47;;;;;;;16.50;11.52;;;29.80;38.50;;;;;;4977051;28;20170;-89
2022/03/10 16:21:13;;;;;;;17.20;11.02;;;29.90;38.70;;;;;;4977201;28;20291;-89
2022/03/10 16:23:38;;;;;;;16.77;11.50;;;29.70;38.80;;;;;;4977206;28;20272;-89
2022/03/10 16:26:06;;;;;;;17.07;11.03;;;29.60;38.90;;;;;;4977081;28;20288;-92
2022/03/10 16:28:33;;;;;;;16.87;12.57;;;29.60;38.90;;;;;;4977799;28;20209;-90
2022/03/10 16:30:59;;;;;;;18.67;12.57;;;29.50;38.90;;;;;;4977280;28;20189;-90
2022/03/10 16:33:25;;;;;;;19.00;12.60;;;29.10;38.80;;;;;;4977039;28;20228;-90
2022/03/10 16:35:51;;;;;;;18.80;12.60;;;28.70;39.00;;;;;;4977254;28;20177;-89
2022/03/10 16:38:17;;;;;;;18.77;12.10;;;28.70;39.40;;;;;;4977365;28;20206;-90
2022/03/10 16:40:43;;;;;;;21.27;12.90;;;28.80;38.90;;;;;;4976839;28;20186;-90
2022/03/10 16:43:08;;;;;;;21.20;12.47;;;28.60;39.00;;;;;;4977844;28;20516;-90
2022/03/10 16:45:34;;;;;;;19.50;13.30;;;28.50;39.40;;;;;;4978296;28;20217;-90
2022/03/10 16:48:00;;;;;;;19.73;13.53;;;28.40;39.30;;;;;;4977350;28;20181;-90
2022/03/10 16:50:27;;;;;;;21.43;13.43;;;28.10;39.60;;;;;;4977848;28;20185;-90
2022/03/10 16:52:53;;;;;;;20.07;13.27;;;27.60;39.70;;;;;;4977188;28;20324;-90
2022/03/10 16:55:18;;;;;;;19.97;13.37;;;26.80;40.30;;;;;;4977889;28;20654;-91
2022/03/10 16:58:25;;;;;;;19.10;13.13;;;26.30;40.90;;;;;;4994032;28;20200;-95
2022/03/10 17:01:51;;;;;;;23.40;13.63;;;25.80;42.70;;;;;;5016461;28;20166;-94
2022/03/10 17:04:38;;;;;;;20.83;12.97;;;25.20;42.10;;;;;;5017926;28;20246;-95
2022/03/10 17:07:11;;;;;;;21.63;13.03;;;24.70;42.70;;;;;;5018317;28;20185;-92
2022/03/10 17:09:40;;;;;;;21.23;12.97;;;24.20;43.00;;;;;;5015001;28;20193;-90
2022/03/10 17:12:07;;;;;;;23.10;12.97;;;23.80;43.50;;;;;;4995118;28;20177;-90
2022/03/10 17:14:33;;;;;;;26.50;13.83;;;23.70;43.10;;;;;;4991844;28;20647;-90
2022/03/10 17:17:00;;;;;;;20.20;13.10;;;23.40;43.70;;;;;;4995849;28;20201;-91
2022/03/10 17:19:31;;;;;;;26.20;14.57;;;23.20;44.00;;;;;;4996179;28;20173;-90
2022/03/10 17:21:59;;;;;;;20.80;12.90;;;23.10;43.50;;;;;;4996232;28;20220;-90
2022/03/10 17:24:28;;;;;;;21.57;13.57;;;22.90;44.20;;;;;;4992370;28;20185;-90
2022/03/10 17:26:55;;;;;;;21.90;14.00;;;22.80;44.10;;;;;;4990755;28;20201;-90
2022/03/10 17:29:21;;;;;;;24.43;14.47;;;22.60;44.50;;;;;;4989712;28;20170;-91
2022/03/10 17:31:48;;;;;;;26.60;13.67;;;22.30;45.10;;;;;;4988989;28;20233;-91
2022/03/10 17:34:13;;;;;;;25.80;14.10;;;22.20;45.00;;;;;;4988953;28;20214;-90
2022/03/10 17:36:39;;;;;;;22.17;13.70;;;22.10;45.20;;;;;;4989645;28;20182;-90
2022/03/10 17:39:05;;;;;;;22.87;13.50;;;21.70;45.60;;;;;;4993969;28;20727;-90
2022/03/10 17:41:31;;;;;;;25.20;13.70;;;21.60;46.20;;;;;;4990389;28;20221;-90
2022/03/10 17:43:57;;;;;;;22.37;13.07;;;21.60;46.00;;;;;;4989715;28;20173;-90
2022/03/10 17:46:23;;;;;;;20.03;12.70;;;21.50;46.60;;;;;;4982903;28;20216;-89
2022/03/10 17:48:49;;;;;;;20.97;12.67;;;21.40;46.40;;;;;;4983603;28;20193;-90
2022/03/10 17:51:15;;;;;;;21.47;12.37;;;21.00;46.90;;;;;;4992399;28;20238;-90
2022/03/10 17:53:41;;;;;;;19.13;12.13;;;20.90;47.10;;;;;;4992886;28;20176;-89
2022/03/10 17:56:06;;;;;;;23.30;13.13;;;20.80;47.20;;;;;;4992739;28;20177;-89
2022/03/10 17:58:32;;;;;;;19.57;12.60;;;20.70;47.40;;;;;;4992805;28;20253;-89
2022/03/10 18:00:58;;;;;;;19.27;12.33;;;20.40;48.20;;;;;;4993685;28;20181;-90
2022/03/10 18:03:24;;;;;;;25.07;13.17;;;20.40;48.00;;;;;;4992493;28;20196;-90
2022/03/10 18:05:52;;;;;;;21.63;13.20;;;20.30;47.70;;;;;;4993186;28;20214;-91
2022/03/10 18:08:18;;;;;;;24.97;14.07;;;20.20;47.90;;;;;;4993572;28;20201;-91
2022/03/10 18:10:46;;;;;;;23.30;13.83;;;20.30;47.90;;;;;;4994422;28;20276;-90
2022/03/10 18:13:13;;;;;;;21.13;13.47;;;20.10;48.00;;;;;;4995021;28;20209;-91
2022/03/10 18:15:39;;;;;;;22.43;14.13;;;20.10;48.40;;;;;;4993045;28;20173;-90
2022/03/10 18:18:04;;;;;;;23.37;14.97;;;19.80;48.40;;;;;;5009630;28;20209;-91
2022/03/10 18:20:30;;;;;;;24.37;14.40;;;19.80;48.60;;;;;;4995636;28;20185;-90
2022/03/10 18:22:56;;;;;;;27.10;15.67;;;19.60;49.00;;;;;;5012552;28;20640;-90
2022/03/10 18:25:22;;;;;;;23.73;13.67;;;19.40;49.20;;;;;;4976072;28;20292;-89
2022/03/10 18:27:48;;;;;;;26.67;14.97;;;19.60;48.80;;;;;;5000705;28;20188;-90
2022/03/10 18:30:14;;;;;;;24.40;14.33;;;19.60;48.70;;;;;;5010682;28;20205;-91
2022/03/10 18:32:40;;;;;;;25.80;13.90;;;19.20;49.60;;;;;;5014608;28;20201;-91
2022/03/10 18:35:07;;;;;;;27.80;14.70;;;19.00;49.80;;;;;;4996993;28;20284;-91
2022/03/10 18:37:34;;;;;;;23.97;14.80;;;19.00;49.60;;;;;;5004938;28;20205;-91
2022/03/10 18:40:01;;;;;;;23.57;14.90;;;18.90;50.00;;;;;;4994385;28;20252;-91
2022/03/10 18:42:27;;;;;;;25.30;13.90;;;18.90;49.80;;;;;;4993007;28;20273;-91
2022/03/10 18:44:53;;;;;;;25.83;14.20;;;18.90;49.60;;;;;;5012980;28;20208;-91
2022/03/10 18:47:19;;;;;;;25.80;15.50;;;19.00;49.70;;;;;;5013209;28;20569;-91
2022/03/10 18:49:45;;;;;;;24.47;14.70;;;18.70;49.70;;;;;;4983667;28;20196;-91
2022/03/10 18:52:17;;;;;;;27.30;15.63;;;18.60;50.10;;;;;;5003351;28;20246;-92